sensor_id;sensor_type;location;lat;lon;timestamp;P1;durP1;ratioP1;P2;durP2;ratioP2
75818;SDS011;64453;51.944;9.796;2024-03-06T00:00:03;18.30;;;14.00;;
75818;SDS011;64453;51.944;9.796;2024-03-06T00:02:34;19.60;;;14.90;;
75818;SDS011;64453;51.944;9.796;2024-03-06T00:05:01;16.83;;;13.30;;
75818;SDS011;64453;51.944;9.796;2024-03-06T00:07:29;18.33;;;14.03;;
75818;SDS011;64453;51.944;9.796;2024-03-06T00:09:56;19.07;;;14.53;;
75818;SDS011;64453;51.944;9.796;2024-03-06T00:12:23;19.90;;;12.97;;
75818;SDS011;64453;51.944;9.796;2024-03-06T00:14:50;16.50;;;14.40;;
75818;SDS011;64453;51.944;9.796;2024-03-06T00:17:19;15.87;;;13.10;;
75818;SDS011;64453;51.944;9.796;2024-03-06T00:19:45;15.50;;;12.43;;
75818;SDS011;64453;51.944;9.796;2024-03-06T00:22:12;17.03;;;14.23;;
75818;SDS011;64453;51.944;9.796;2024-03-06T00:24:39;15.60;;;12.50;;
75818;SDS011;64453;51.944;9.796;2024-03-06T00:27:06;18.70;;;13.37;;
75818;SDS011;64453;51.944;9.796;2024-03-06T00:29:34;17.97;;;12.60;;
75818;SDS011;64453;51.944;9.796;2024-03-06T00:32:03;20.80;;;12.90;;
75818;SDS011;64453;51.944;9.796;2024-03-06T00:34:32;19.37;;;13.17;;
75818;SDS011;64453;51.944;9.796;2024-03-06T00:36:59;15.47;;;12.63;;
75818;SDS011;64453;51.944;9.796;2024-03-06T00:39:25;16.23;;;13.43;;
75818;SDS011;64453;51.944;9.796;2024-03-06T00:41:53;16.83;;;13.07;;
75818;SDS011;64453;51.944;9.796;2024-03-06T00:44:20;15.70;;;12.20;;
75818;SDS011;64453;51.944;9.796;2024-03-06T00:46:46;15.77;;;12.67;;
75818;SDS011;64453;51.944;9.796;2024-03-06T00:49:14;14.30;;;12.10;;
75818;SDS011;64453;51.944;9.796;2024-03-06T00:51:42;15.90;;;12.53;;
75818;SDS011;64453;51.944;9.796;2024-03-06T00:54:09;16.37;;;12.67;;
75818;SDS011;64453;51.944;9.796;2024-03-06T00:56:37;14.67;;;12.13;;
75818;SDS011;64453;51.944;9.796;2024-03-06T00:59:04;17.80;;;12.83;;
75818;SDS011;64453;51.944;9.796;2024-03-06T01:01:31;17.87;;;12.80;;
75818;SDS011;64453;51.944;9.796;2024-03-06T01:03:58;14.77;;;13.03;;
75818;SDS011;64453;51.944;9.796;2024-03-06T01:06:25;16.00;;;11.90;;
75818;SDS011;64453;51.944;9.796;2024-03-06T01:08:54;15.90;;;12.33;;
75818;SDS011;64453;51.944;9.796;2024-03-06T01:11:22;15.33;;;13.00;;
75818;SDS011;64453;51.944;9.796;2024-03-06T01:13:48;16.43;;;13.67;;
75818;SDS011;64453;51.944;9.796;2024-03-06T01:16:15;16.03;;;12.57;;
75818;SDS011;64453;51.944;9.796;2024-03-06T01:18:42;14.47;;;12.30;;
75818;SDS011;64453;51.944;9.796;2024-03-06T01:21:09;17.77;;;13.10;;
75818;SDS011;64453;51.944;9.796;2024-03-06T01:23:36;15.73;;;12.27;;
75818;SDS011;64453;51.944;9.796;2024-03-06T01:26:04;16.20;;;14.10;;
75818;SDS011;64453;51.944;9.796;2024-03-06T01:28:31;16.27;;;12.80;;
75818;SDS011;64453;51.944;9.796;2024-03-06T01:30:58;18.80;;;13.30;;
75818;SDS011;64453;51.944;9.796;2024-03-06T01:33:25;14.07;;;11.80;;
75818;SDS011;64453;51.944;9.796;2024-03-06T01:35:52;15.20;;;12.40;;
75818;SDS011;64453;51.944;9.796;2024-03-06T01:38:19;15.20;;;12.97;;
75818;SDS011;64453;51.944;9.796;2024-03-06T01:40:46;15.20;;;11.60;;
75818;SDS011;64453;51.944;9.796;2024-03-06T01:43:19;13.63;;;11.07;;
75818;SDS011;64453;51.944;9.796;2024-03-06T01:45:47;14.50;;;11.97;;
75818;SDS011;64453;51.944;9.796;2024-03-06T01:48:15;15.77;;;11.97;;
75818;SDS011;64453;51.944;9.796;2024-03-06T01:50:42;13.70;;;11.57;;
75818;SDS011;64453;51.944;9.796;2024-03-06T01:53:10;13.20;;;10.70;;
75818;SDS011;64453;51.944;9.796;2024-03-06T01:55:39;23.43;;;11.90;;
75818;SDS011;64453;51.944;9.796;2024-03-06T01:58:07;18.03;;;12.10;;
75818;SDS011;64453;51.944;9.796;2024-03-06T02:00:36;16.70;;;11.23;;
75818;SDS011;64453;51.944;9.796;2024-03-06T02:03:05;15.23;;;11.73;;
75818;SDS011;64453;51.944;9.796;2024-03-06T02:05:33;15.20;;;11.60;;
75818;SDS011;64453;51.944;9.796;2024-03-06T02:08:00;13.93;;;11.33;;
75818;SDS011;64453;51.944;9.796;2024-03-06T02:10:27;17.03;;;12.47;;
75818;SDS011;64453;51.944;9.796;2024-03-06T02:12:54;12.60;;;10.43;;
75818;SDS011;64453;51.944;9.796;2024-03-06T02:15:23;13.23;;;11.83;;
75818;SDS011;64453;51.944;9.796;2024-03-06T02:17:51;16.27;;;12.00;;
75818;SDS011;64453;51.944;9.796;2024-03-06T02:20:22;14.23;;;11.97;;
75818;SDS011;64453;51.944;9.796;2024-03-06T02:22:49;13.73;;;12.13;;
75818;SDS011;64453;51.944;9.796;2024-03-06T02:25:18;15.50;;;12.20;;
75818;SDS011;64453;51.944;9.796;2024-03-06T02:27:45;17.63;;;12.07;;
75818;SDS011;64453;51.944;9.796;2024-03-06T02:30:13;14.67;;;12.23;;
75818;SDS011;64453;51.944;9.796;2024-03-06T02:32:41;13.97;;;12.30;;
75818;SDS011;64453;51.944;9.796;2024-03-06T02:35:09;14.90;;;11.20;;
75818;SDS011;64453;51.944;9.796;2024-03-06T02:37:38;15.23;;;11.67;;
75818;SDS011;64453;51.944;9.796;2024-03-06T02:40:07;14.70;;;12.13;;
75818;SDS011;64453;51.944;9.796;2024-03-06T02:42:35;15.27;;;12.03;;
75818;SDS011;64453;51.944;9.796;2024-03-06T02:45:02;17.40;;;12.57;;
75818;SDS011;64453;51.944;9.796;2024-03-06T02:47:30;14.70;;;12.03;;
75818;SDS011;64453;51.944;9.796;2024-03-06T02:49:57;16.13;;;13.10;;
75818;SDS011;64453;51.944;9.796;2024-03-06T02:52:24;15.00;;;12.03;;
75818;SDS011;64453;51.944;9.796;2024-03-06T02:54:52;13.87;;;11.27;;
75818;SDS011;64453;51.944;9.796;2024-03-06T02:57:20;14.90;;;13.10;;
75818;SDS011;64453;51.944;9.796;2024-03-06T02:59:47;15.33;;;12.23;;
75818;SDS011;64453;51.944;9.796;2024-03-06T03:02:15;13.90;;;12.40;;
75818;SDS011;64453;51.944;9.796;2024-03-06T03:04:41;14.37;;;11.90;;
75818;SDS011;64453;51.944;9.796;2024-03-06T03:07:09;14.33;;;11.20;;
75818;SDS011;64453;51.944;9.796;2024-03-06T03:09:37;16.37;;;12.20;;
75818;SDS011;64453;51.944;9.796;2024-03-06T03:12:05;17.60;;;12.50;;
75818;SDS011;64453;51.944;9.796;2024-03-06T03:14:33;16.73;;;12.03;;
75818;SDS011;64453;51.944;9.796;2024-03-06T03:17:00;13.80;;;10.43;;
75818;SDS011;64453;51.944;9.796;2024-03-06T03:19:27;14.27;;;12.00;;
75818;SDS011;64453;51.944;9.796;2024-03-06T03:21:54;14.60;;;10.80;;
75818;SDS011;64453;51.944;9.796;2024-03-06T03:24:21;15.50;;;10.77;;
75818;SDS011;64453;51.944;9.796;2024-03-06T03:26:50;13.10;;;11.63;;
75818;SDS011;64453;51.944;9.796;2024-03-06T03:29:18;16.63;;;12.30;;
75818;SDS011;64453;51.944;9.796;2024-03-06T03:31:45;21.47;;;13.77;;
75818;SDS011;64453;51.944;9.796;2024-03-06T03:34:12;14.90;;;12.57;;
75818;SDS011;64453;51.944;9.796;2024-03-06T03:36:40;17.07;;;13.90;;
75818;SDS011;64453;51.944;9.796;2024-03-06T03:39:07;22.17;;;11.90;;
75818;SDS011;64453;51.944;9.796;2024-03-06T03:41:44;15.67;;;13.20;;
75818;SDS011;64453;51.944;9.796;2024-03-06T03:44:11;16.30;;;13.00;;
75818;SDS011;64453;51.944;9.796;2024-03-06T03:46:40;15.23;;;12.27;;
75818;SDS011;64453;51.944;9.796;2024-03-06T03:49:07;18.50;;;14.03;;
75818;SDS011;64453;51.944;9.796;2024-03-06T03:51:35;15.97;;;13.27;;
75818;SDS011;64453;51.944;9.796;2024-03-06T03:54:02;18.13;;;14.57;;
75818;SDS011;64453;51.944;9.796;2024-03-06T03:56:29;17.87;;;14.63;;
75818;SDS011;64453;51.944;9.796;2024-03-06T03:58:56;16.43;;;12.93;;
75818;SDS011;64453;51.944;9.796;2024-03-06T04:01:24;14.90;;;13.10;;
75818;SDS011;64453;51.944;9.796;2024-03-06T04:03:52;15.20;;;12.80;;
75818;SDS011;64453;51.944;9.796;2024-03-06T04:06:19;14.27;;;12.10;;
75818;SDS011;64453;51.944;9.796;2024-03-06T04:08:46;16.27;;;13.53;;
75818;SDS011;64453;51.944;9.796;2024-03-06T04:11:13;15.63;;;14.00;;
75818;SDS011;64453;51.944;9.796;2024-03-06T04:13:40;15.80;;;14.00;;
75818;SDS011;64453;51.944;9.796;2024-03-06T04:16:07;15.40;;;13.37;;
75818;SDS011;64453;51.944;9.796;2024-03-06T04:18:34;15.83;;;12.53;;
75818;SDS011;64453;51.944;9.796;2024-03-06T04:21:06;16.27;;;12.03;;
75818;SDS011;64453;51.944;9.796;2024-03-06T04:23:34;14.63;;;12.73;;
75818;SDS011;64453;51.944;9.796;2024-03-06T04:26:01;18.10;;;13.23;;
75818;SDS011;64453;51.944;9.796;2024-03-06T04:28:29;15.70;;;12.47;;
75818;SDS011;64453;51.944;9.796;2024-03-06T04:30:56;17.20;;;12.67;;
75818;SDS011;64453;51.944;9.796;2024-03-06T04:33:23;17.20;;;12.00;;
75818;SDS011;64453;51.944;9.796;2024-03-06T04:35:50;15.00;;;12.40;;
75818;SDS011;64453;51.944;9.796;2024-03-06T04:38:18;18.87;;;13.07;;
75818;SDS011;64453;51.944;9.796;2024-03-06T04:40:46;14.87;;;12.93;;
75818;SDS011;64453;51.944;9.796;2024-03-06T04:43:13;17.67;;;12.60;;
75818;SDS011;64453;51.944;9.796;2024-03-06T04:45:39;16.43;;;12.47;;
75818;SDS011;64453;51.944;9.796;2024-03-06T04:48:07;16.50;;;13.30;;
75818;SDS011;64453;51.944;9.796;2024-03-06T04:50:34;16.37;;;13.20;;
75818;SDS011;64453;51.944;9.796;2024-03-06T04:53:01;19.87;;;12.63;;
75818;SDS011;64453;51.944;9.796;2024-03-06T04:55:29;17.77;;;13.57;;
75818;SDS011;64453;51.944;9.796;2024-03-06T04:57:56;16.90;;;12.63;;
75818;SDS011;64453;51.944;9.796;2024-03-06T05:00:23;19.10;;;13.10;;
75818;SDS011;64453;51.944;9.796;2024-03-06T05:02:50;15.70;;;13.10;;
75818;SDS011;64453;51.944;9.796;2024-03-06T05:05:17;17.50;;;12.30;;
75818;SDS011;64453;51.944;9.796;2024-03-06T05:07:44;16.23;;;13.17;;
75818;SDS011;64453;51.944;9.796;2024-03-06T05:10:11;15.97;;;12.60;;
75818;SDS011;64453;51.944;9.796;2024-03-06T05:12:39;18.23;;;13.00;;
75818;SDS011;64453;51.944;9.796;2024-03-06T05:15:06;16.80;;;12.87;;
75818;SDS011;64453;51.944;9.796;2024-03-06T05:17:34;16.83;;;12.40;;
75818;SDS011;64453;51.944;9.796;2024-03-06T05:20:00;16.40;;;12.60;;
75818;SDS011;64453;51.944;9.796;2024-03-06T05:22:29;19.37;;;13.77;;
75818;SDS011;64453;51.944;9.796;2024-03-06T05:24:55;17.07;;;13.57;;
75818;SDS011;64453;51.944;9.796;2024-03-06T05:27:23;20.70;;;13.00;;
75818;SDS011;64453;51.944;9.796;2024-03-06T05:29:52;18.50;;;13.93;;
75818;SDS011;64453;51.944;9.796;2024-03-06T05:32:19;17.30;;;13.70;;
75818;SDS011;64453;51.944;9.796;2024-03-06T05:34:46;16.83;;;13.27;;
75818;SDS011;64453;51.944;9.796;2024-03-06T05:37:13;18.20;;;13.87;;
75818;SDS011;64453;51.944;9.796;2024-03-06T05:39:40;16.17;;;13.27;;
75818;SDS011;64453;51.944;9.796;2024-03-06T05:42:07;15.30;;;12.70;;
75818;SDS011;64453;51.944;9.796;2024-03-06T05:44:34;14.97;;;12.17;;
75818;SDS011;64453;51.944;9.796;2024-03-06T05:47:03;18.70;;;13.00;;
75818;SDS011;64453;51.944;9.796;2024-03-06T05:49:31;21.10;;;14.50;;
75818;SDS011;64453;51.944;9.796;2024-03-06T05:51:59;17.00;;;13.60;;
75818;SDS011;64453;51.944;9.796;2024-03-06T05:54:27;14.60;;;12.10;;
75818;SDS011;64453;51.944;9.796;2024-03-06T05:56:58;18.50;;;14.80;;
75818;SDS011;64453;51.944;9.796;2024-03-06T05:59:25;19.03;;;15.10;;
75818;SDS011;64453;51.944;9.796;2024-03-06T06:01:54;16.70;;;13.00;;
75818;SDS011;64453;51.944;9.796;2024-03-06T06:04:23;16.60;;;13.90;;
75818;SDS011;64453;51.944;9.796;2024-03-06T06:06:50;18.10;;;13.73;;
75818;SDS011;64453;51.944;9.796;2024-03-06T06:09:18;20.03;;;14.63;;
75818;SDS011;64453;51.944;9.796;2024-03-06T06:11:44;18.97;;;14.47;;
75818;SDS011;64453;51.944;9.796;2024-03-06T06:14:12;20.40;;;13.87;;
75818;SDS011;64453;51.944;9.796;2024-03-06T06:16:40;23.10;;;14.97;;
75818;SDS011;64453;51.944;9.796;2024-03-06T06:19:08;17.10;;;13.60;;
75818;SDS011;64453;51.944;9.796;2024-03-06T06:21:37;20.93;;;14.10;;
75818;SDS011;64453;51.944;9.796;2024-03-06T06:24:03;16.00;;;12.90;;
75818;SDS011;64453;51.944;9.796;2024-03-06T06:26:32;19.10;;;14.17;;
75818;SDS011;64453;51.944;9.796;2024-03-06T06:28:59;16.07;;;13.20;;
75818;SDS011;64453;51.944;9.796;2024-03-06T06:31:26;18.70;;;13.63;;
75818;SDS011;64453;51.944;9.796;2024-03-06T06:33:53;18.97;;;15.10;;
75818;SDS011;64453;51.944;9.796;2024-03-06T06:36:20;17.67;;;13.60;;
75818;SDS011;64453;51.944;9.796;2024-03-06T06:38:49;20.63;;;14.50;;
75818;SDS011;64453;51.944;9.796;2024-03-06T06:41:17;17.67;;;12.93;;
75818;SDS011;64453;51.944;9.796;2024-03-06T06:43:44;16.80;;;13.53;;
75818;SDS011;64453;51.944;9.796;2024-03-06T06:46:11;16.97;;;14.10;;
75818;SDS011;64453;51.944;9.796;2024-03-06T06:48:38;17.53;;;14.20;;
75818;SDS011;64453;51.944;9.796;2024-03-06T06:51:05;19.63;;;14.87;;
75818;SDS011;64453;51.944;9.796;2024-03-06T06:53:32;16.23;;;13.10;;
75818;SDS011;64453;51.944;9.796;2024-03-06T06:56:00;19.60;;;15.30;;
75818;SDS011;64453;51.944;9.796;2024-03-06T06:58:27;17.87;;;13.97;;
75818;SDS011;64453;51.944;9.796;2024-03-06T07:00:54;25.60;;;15.87;;
75818;SDS011;64453;51.944;9.796;2024-03-06T07:03:21;23.63;;;15.50;;
75818;SDS011;64453;51.944;9.796;2024-03-06T07:05:54;22.13;;;14.80;;
75818;SDS011;64453;51.944;9.796;2024-03-06T07:08:21;17.17;;;13.07;;
75818;SDS011;64453;51.944;9.796;2024-03-06T07:10:48;19.67;;;13.93;;
75818;SDS011;64453;51.944;9.796;2024-03-06T07:13:17;24.13;;;14.90;;
75818;SDS011;64453;51.944;9.796;2024-03-06T07:15:44;23.00;;;16.20;;
75818;SDS011;64453;51.944;9.796;2024-03-06T07:18:11;19.80;;;14.23;;
75818;SDS011;64453;51.944;9.796;2024-03-06T07:20:39;17.40;;;14.40;;
75818;SDS011;64453;51.944;9.796;2024-03-06T07:23:06;18.73;;;14.30;;
75818;SDS011;64453;51.944;9.796;2024-03-06T07:25:33;17.03;;;13.57;;
75818;SDS011;64453;51.944;9.796;2024-03-06T07:28:00;20.47;;;14.57;;
75818;SDS011;64453;51.944;9.796;2024-03-06T07:30:28;17.77;;;14.00;;
75818;SDS011;64453;51.944;9.796;2024-03-06T07:32:56;19.00;;;14.20;;
75818;SDS011;64453;51.944;9.796;2024-03-06T07:35:23;18.60;;;14.40;;
75818;SDS011;64453;51.944;9.796;2024-03-06T07:37:50;19.17;;;14.77;;
75818;SDS011;64453;51.944;9.796;2024-03-06T07:40:17;17.00;;;13.83;;
75818;SDS011;64453;51.944;9.796;2024-03-06T07:42:44;22.60;;;15.47;;
75818;SDS011;64453;51.944;9.796;2024-03-06T07:45:11;22.10;;;15.57;;
75818;SDS011;64453;51.944;9.796;2024-03-06T07:47:39;19.07;;;14.40;;
75818;SDS011;64453;51.944;9.796;2024-03-06T07:50:06;24.83;;;15.33;;
75818;SDS011;64453;51.944;9.796;2024-03-06T07:52:36;18.60;;;15.23;;
75818;SDS011;64453;51.944;9.796;2024-03-06T07:55:03;19.60;;;15.83;;
75818;SDS011;64453;51.944;9.796;2024-03-06T07:57:31;20.50;;;14.83;;
75818;SDS011;64453;51.944;9.796;2024-03-06T07:59:58;19.93;;;15.30;;
75818;SDS011;64453;51.944;9.796;2024-03-06T08:02:25;19.60;;;14.90;;
75818;SDS011;64453;51.944;9.796;2024-03-06T08:04:54;18.07;;;13.83;;
75818;SDS011;64453;51.944;9.796;2024-03-06T08:07:21;22.03;;;15.37;;
75818;SDS011;64453;51.944;9.796;2024-03-06T08:09:48;19.80;;;14.97;;
75818;SDS011;64453;51.944;9.796;2024-03-06T08:12:15;18.50;;;14.20;;
75818;SDS011;64453;51.944;9.796;2024-03-06T08:14:42;21.30;;;14.83;;
75818;SDS011;64453;51.944;9.796;2024-03-06T08:17:10;18.77;;;15.20;;
75818;SDS011;64453;51.944;9.796;2024-03-06T08:19:37;24.60;;;15.10;;
75818;SDS011;64453;51.944;9.796;2024-03-06T08:22:05;21.23;;;15.63;;
75818;SDS011;64453;51.944;9.796;2024-03-06T08:24:32;21.00;;;14.53;;
75818;SDS011;64453;51.944;9.796;2024-03-06T08:27:00;20.00;;;14.10;;
75818;SDS011;64453;51.944;9.796;2024-03-06T08:29:28;20.90;;;15.77;;
75818;SDS011;64453;51.944;9.796;2024-03-06T08:31:55;18.70;;;15.37;;
75818;SDS011;64453;51.944;9.796;2024-03-06T08:34:24;24.10;;;16.30;;
75818;SDS011;64453;51.944;9.796;2024-03-06T08:36:51;19.80;;;14.73;;
75818;SDS011;64453;51.944;9.796;2024-03-06T08:39:21;17.60;;;14.77;;
75818;SDS011;64453;51.944;9.796;2024-03-06T08:41:48;17.90;;;14.50;;
75818;SDS011;64453;51.944;9.796;2024-03-06T08:44:15;20.70;;;15.83;;
75818;SDS011;64453;51.944;9.796;2024-03-06T08:46:42;20.20;;;15.80;;
75818;SDS011;64453;51.944;9.796;2024-03-06T08:49:09;18.60;;;15.23;;
75818;SDS011;64453;51.944;9.796;2024-03-06T08:51:36;21.13;;;15.00;;
75818;SDS011;64453;51.944;9.796;2024-03-06T08:54:03;20.63;;;15.93;;
75818;SDS011;64453;51.944;9.796;2024-03-06T08:56:31;22.90;;;14.67;;
75818;SDS011;64453;51.944;9.796;2024-03-06T08:58:59;20.90;;;15.07;;
75818;SDS011;64453;51.944;9.796;2024-03-06T09:01:27;17.77;;;14.27;;
75818;SDS011;64453;51.944;9.796;2024-03-06T09:03:54;18.03;;;14.93;;
75818;SDS011;64453;51.944;9.796;2024-03-06T09:06:22;30.17;;;15.90;;
75818;SDS011;64453;51.944;9.796;2024-03-06T09:08:49;19.23;;;15.23;;
75818;SDS011;64453;51.944;9.796;2024-03-06T09:11:16;20.77;;;16.43;;
75818;SDS011;64453;51.944;9.796;2024-03-06T09:13:44;18.77;;;14.60;;
75818;SDS011;64453;51.944;9.796;2024-03-06T09:16:11;17.57;;;14.63;;
75818;SDS011;64453;51.944;9.796;2024-03-06T09:18:38;18.83;;;14.50;;
75818;SDS011;64453;51.944;9.796;2024-03-06T09:21:05;17.53;;;14.33;;
75818;SDS011;64453;51.944;9.796;2024-03-06T09:23:32;18.77;;;14.33;;
75818;SDS011;64453;51.944;9.796;2024-03-06T09:25:59;21.87;;;14.43;;
75818;SDS011;64453;51.944;9.796;2024-03-06T09:28:26;18.90;;;15.00;;
75818;SDS011;64453;51.944;9.796;2024-03-06T09:30:54;19.27;;;15.40;;
75818;SDS011;64453;51.944;9.796;2024-03-06T09:33:22;19.67;;;14.60;;
75818;SDS011;64453;51.944;9.796;2024-03-06T09:35:49;27.43;;;19.50;;
75818;SDS011;64453;51.944;9.796;2024-03-06T09:38:15;19.00;;;16.10;;
75818;SDS011;64453;51.944;9.796;2024-03-06T09:40:42;19.67;;;16.17;;
75818;SDS011;64453;51.944;9.796;2024-03-06T09:43:09;21.77;;;15.40;;
75818;SDS011;64453;51.944;9.796;2024-03-06T09:45:36;17.50;;;14.80;;
75818;SDS011;64453;51.944;9.796;2024-03-06T09:48:05;18.77;;;13.73;;
75818;SDS011;64453;51.944;9.796;2024-03-06T09:50:35;17.77;;;14.00;;
75818;SDS011;64453;51.944;9.796;2024-03-06T09:53:06;20.93;;;14.83;;
75818;SDS011;64453;51.944;9.796;2024-03-06T09:55:36;16.30;;;13.67;;
75818;SDS011;64453;51.944;9.796;2024-03-06T09:58:05;20.80;;;14.83;;
75818;SDS011;64453;51.944;9.796;2024-03-06T10:00:33;17.70;;;13.70;;
75818;SDS011;64453;51.944;9.796;2024-03-06T10:03:01;17.30;;;15.00;;
75818;SDS011;64453;51.944;9.796;2024-03-06T10:05:31;18.10;;;13.90;;
75818;SDS011;64453;51.944;9.796;2024-03-06T10:08:00;18.87;;;13.10;;
75818;SDS011;64453;51.944;9.796;2024-03-06T10:10:29;17.53;;;13.17;;
75818;SDS011;64453;51.944;9.796;2024-03-06T10:12:56;15.03;;;12.57;;
75818;SDS011;64453;51.944;9.796;2024-03-06T10:15:25;16.77;;;12.87;;
75818;SDS011;64453;51.944;9.796;2024-03-06T10:18:02;18.00;;;14.47;;
75818;SDS011;64453;51.944;9.796;2024-03-06T10:20:39;18.40;;;13.77;;
75818;SDS011;64453;51.944;9.796;2024-03-06T10:23:09;16.93;;;13.97;;
75818;SDS011;64453;51.944;9.796;2024-03-06T10:25:36;20.30;;;14.17;;
75818;SDS011;64453;51.944;9.796;2024-03-06T10:28:06;16.10;;;12.20;;
75818;SDS011;64453;51.944;9.796;2024-03-06T10:30:34;27.57;;;12.50;;
75818;SDS011;64453;51.944;9.796;2024-03-06T10:33:03;16.97;;;13.13;;
75818;SDS011;64453;51.944;9.796;2024-03-06T10:35:31;14.03;;;12.23;;
75818;SDS011;64453;51.944;9.796;2024-03-06T10:38:00;20.33;;;13.50;;
75818;SDS011;64453;51.944;9.796;2024-03-06T10:40:27;16.00;;;12.70;;
75818;SDS011;64453;51.944;9.796;2024-03-06T10:42:58;17.70;;;12.07;;
75818;SDS011;64453;51.944;9.796;2024-03-06T10:45:27;13.93;;;12.47;;
75818;SDS011;64453;51.944;9.796;2024-03-06T10:48:06;16.00;;;13.50;;
75818;SDS011;64453;51.944;9.796;2024-03-06T10:50:36;17.13;;;13.23;;
75818;SDS011;64453;51.944;9.796;2024-03-06T10:53:11;23.50;;;13.43;;
75818;SDS011;64453;51.944;9.796;2024-03-06T10:55:39;15.53;;;12.97;;
75818;SDS011;64453;51.944;9.796;2024-03-06T10:58:09;15.20;;;12.43;;
75818;SDS011;64453;51.944;9.796;2024-03-06T11:00:37;15.97;;;12.77;;
75818;SDS011;64453;51.944;9.796;2024-03-06T11:03:06;17.87;;;13.93;;
75818;SDS011;64453;51.944;9.796;2024-03-06T11:05:37;16.03;;;12.80;;
75818;SDS011;64453;51.944;9.796;2024-03-06T11:08:05;16.50;;;13.53;;
75818;SDS011;64453;51.944;9.796;2024-03-06T11:10:36;15.93;;;13.10;;
75818;SDS011;64453;51.944;9.796;2024-03-06T11:13:04;14.77;;;11.60;;
75818;SDS011;64453;51.944;9.796;2024-03-06T11:15:47;16.87;;;13.30;;
75818;SDS011;64453;51.944;9.796;2024-03-06T11:21:28;14.70;;;12.00;;
75818;SDS011;64453;51.944;9.796;2024-03-06T11:26:48;17.00;;;13.90;;
75818;SDS011;64453;51.944;9.796;2024-03-06T11:29:17;14.00;;;12.50;;
75818;SDS011;64453;51.944;9.796;2024-03-06T11:31:59;14.73;;;12.00;;
75818;SDS011;64453;51.944;9.796;2024-03-06T11:34:29;17.40;;;13.43;;
75818;SDS011;64453;51.944;9.796;2024-03-06T11:36:56;18.23;;;13.43;;
75818;SDS011;64453;51.944;9.796;2024-03-06T11:39:27;16.93;;;12.93;;
75818;SDS011;64453;51.944;9.796;2024-03-06T11:41:59;17.13;;;12.90;;
75818;SDS011;64453;51.944;9.796;2024-03-06T11:44:26;16.07;;;13.50;;
75818;SDS011;64453;51.944;9.796;2024-03-06T11:46:57;18.73;;;12.20;;
75818;SDS011;64453;51.944;9.796;2024-03-06T11:49:26;16.07;;;13.27;;
75818;SDS011;64453;51.944;9.796;2024-03-06T11:51:57;19.43;;;14.00;;
75818;SDS011;64453;51.944;9.796;2024-03-06T11:54:29;15.50;;;13.40;;
75818;SDS011;64453;51.944;9.796;2024-03-06T11:56:57;17.87;;;13.50;;
75818;SDS011;64453;51.944;9.796;2024-03-06T11:59:26;17.20;;;13.67;;
75818;SDS011;64453;51.944;9.796;2024-03-06T12:01:55;19.83;;;14.87;;
75818;SDS011;64453;51.944;9.796;2024-03-06T12:04:24;18.83;;;13.50;;
75818;SDS011;64453;51.944;9.796;2024-03-06T12:06:51;16.57;;;13.70;;
75818;SDS011;64453;51.944;9.796;2024-03-06T12:09:18;16.50;;;12.70;;
75818;SDS011;64453;51.944;9.796;2024-03-06T12:11:45;17.13;;;13.30;;
75818;SDS011;64453;51.944;9.796;2024-03-06T12:14:15;20.87;;;14.90;;
75818;SDS011;64453;51.944;9.796;2024-03-06T12:16:44;16.50;;;13.97;;
75818;SDS011;64453;51.944;9.796;2024-03-06T12:19:21;12.83;;;11.30;;
75818;SDS011;64453;51.944;9.796;2024-03-06T12:21:48;18.50;;;13.30;;
75818;SDS011;64453;51.944;9.796;2024-03-06T12:24:16;19.60;;;14.50;;
75818;SDS011;64453;51.944;9.796;2024-03-06T12:26:44;21.87;;;15.40;;
75818;SDS011;64453;51.944;9.796;2024-03-06T12:29:17;21.77;;;16.23;;
75818;SDS011;64453;51.944;9.796;2024-03-06T12:31:45;19.57;;;13.83;;
75818;SDS011;64453;51.944;9.796;2024-03-06T12:34:13;17.93;;;12.67;;
75818;SDS011;64453;51.944;9.796;2024-03-06T12:36:42;19.93;;;14.70;;
75818;SDS011;64453;51.944;9.796;2024-03-06T12:39:09;14.57;;;12.10;;
75818;SDS011;64453;51.944;9.796;2024-03-06T12:41:38;18.63;;;14.17;;
75818;SDS011;64453;51.944;9.796;2024-03-06T12:44:06;16.17;;;13.00;;
75818;SDS011;64453;51.944;9.796;2024-03-06T12:46:35;18.23;;;13.43;;
75818;SDS011;64453;51.944;9.796;2024-03-06T12:49:02;18.20;;;14.10;;
75818;SDS011;64453;51.944;9.796;2024-03-06T12:51:29;18.90;;;13.43;;
75818;SDS011;64453;51.944;9.796;2024-03-06T12:53:57;18.53;;;14.13;;
75818;SDS011;64453;51.944;9.796;2024-03-06T12:56:24;19.03;;;15.33;;
75818;SDS011;64453;51.944;9.796;2024-03-06T12:58:52;16.97;;;13.60;;
75818;SDS011;64453;51.944;9.796;2024-03-06T13:01:19;20.10;;;14.90;;
75818;SDS011;64453;51.944;9.796;2024-03-06T13:03:48;15.00;;;12.77;;
75818;SDS011;64453;51.944;9.796;2024-03-06T13:06:15;21.10;;;14.67;;
75818;SDS011;64453;51.944;9.796;2024-03-06T13:08:42;15.07;;;12.90;;
75818;SDS011;64453;51.944;9.796;2024-03-06T13:11:09;17.27;;;13.40;;
75818;SDS011;64453;51.944;9.796;2024-03-06T13:13:37;14.10;;;12.57;;
75818;SDS011;64453;51.944;9.796;2024-03-06T13:16:04;15.30;;;13.43;;
75818;SDS011;64453;51.944;9.796;2024-03-06T13:18:31;16.60;;;13.80;;
75818;SDS011;64453;51.944;9.796;2024-03-06T13:21:00;16.57;;;13.33;;
75818;SDS011;64453;51.944;9.796;2024-03-06T13:23:27;18.73;;;13.37;;
75818;SDS011;64453;51.944;9.796;2024-03-06T13:25:56;16.97;;;13.10;;
75818;SDS011;64453;51.944;9.796;2024-03-06T13:28:24;15.80;;;13.67;;
75818;SDS011;64453;51.944;9.796;2024-03-06T13:30:50;24.10;;;16.23;;
75818;SDS011;64453;51.944;9.796;2024-03-06T13:33:17;16.23;;;13.70;;
75818;SDS011;64453;51.944;9.796;2024-03-06T13:35:45;19.73;;;14.20;;
75818;SDS011;64453;51.944;9.796;2024-03-06T13:38:13;22.07;;;14.30;;
75818;SDS011;64453;51.944;9.796;2024-03-06T13:40:40;20.47;;;13.90;;
75818;SDS011;64453;51.944;9.796;2024-03-06T13:43:07;18.13;;;14.20;;
75818;SDS011;64453;51.944;9.796;2024-03-06T13:45:34;20.80;;;14.30;;
75818;SDS011;64453;51.944;9.796;2024-03-06T13:48:02;21.53;;;15.90;;
75818;SDS011;64453;51.944;9.796;2024-03-06T13:50:42;16.10;;;13.67;;
75818;SDS011;64453;51.944;9.796;2024-03-06T13:53:09;23.60;;;15.67;;
75818;SDS011;64453;51.944;9.796;2024-03-06T13:55:37;18.63;;;14.40;;
75818;SDS011;64453;51.944;9.796;2024-03-06T13:58:05;15.73;;;12.90;;
75818;SDS011;64453;51.944;9.796;2024-03-06T14:00:32;20.33;;;14.60;;
75818;SDS011;64453;51.944;9.796;2024-03-06T14:03:00;15.20;;;12.80;;
75818;SDS011;64453;51.944;9.796;2024-03-06T14:05:27;24.13;;;15.23;;
75818;SDS011;64453;51.944;9.796;2024-03-06T14:07:54;17.33;;;14.13;;
75818;SDS011;64453;51.944;9.796;2024-03-06T14:10:21;18.10;;;14.10;;
75818;SDS011;64453;51.944;9.796;2024-03-06T14:12:50;19.43;;;14.97;;
75818;SDS011;64453;51.944;9.796;2024-03-06T14:15:17;16.20;;;13.00;;
75818;SDS011;64453;51.944;9.796;2024-03-06T14:17:44;18.47;;;13.27;;
75818;SDS011;64453;51.944;9.796;2024-03-06T14:20:11;19.00;;;14.37;;
75818;SDS011;64453;51.944;9.796;2024-03-06T14:22:38;17.27;;;13.90;;
75818;SDS011;64453;51.944;9.796;2024-03-06T14:25:05;22.87;;;14.40;;
75818;SDS011;64453;51.944;9.796;2024-03-06T14:27:33;18.30;;;14.00;;
75818;SDS011;64453;51.944;9.796;2024-03-06T14:30:02;17.20;;;14.87;;